Time;durP1;ratioP1;P1;durP2;ratioP2;P2;SDS_P1;SDS_P2;PMS_P1;PMS_P2;Temp;Humidity;BMP_temperature;BMP_pressure;BME280_temperature;BME280_humidity;BME280_pressure;Samples;Min_cycle;Max_cycle;Signal;HPM_P1;HPM_P2
2021/12/20 00:00:59;;;;;;;;;27.33;20.00;;;;;7.73;67.11;102417.31;4900667;28;48043;-95
2021/12/20 00:03:25;;;;;;;;;24.00;17.33;;;;;7.76;66.95;102420.19;4905566;28;45884;-95
2021/12/20 00:05:50;;;;;;;;;25.33;22.67;;;;;7.63;66.94;102386.91;4905266;28;44851;-96
2021/12/20 00:08:16;;;;;;;;;30.50;26.75;;;;;7.82;66.99;102429.47;4916983;28;45350;-95
2021/12/20 00:10:41;;;;;;;;;31.00;23.67;;;;;7.75;67.01;102411.44;4913540;28;48354;-96
2021/12/20 00:13:06;;;;;;;;;24.00;20.33;;;;;7.60;66.81;102383.22;4910601;28;46037;-96
2021/12/20 00:15:32;;;;;;;;;29.00;23.33;;;;;7.78;67.00;102416.91;4900796;28;45320;-94
2021/12/20 00:17:57;;;;;;;;;24.67;19.67;;;;;7.68;66.83;102403.88;4901212;28;45603;-96
2021/12/20 00:20:23;;;;;;;;;23.33;19.67;;;;;7.70;66.92;102402.28;4900744;28;47006;-95
2021/12/20 00:22:48;;;;;;;;;28.67;24.33;;;;;7.63;66.74;102386.91;4900775;28;45385;-95
2021/12/20 00:25:14;;;;;;;;;22.00;21.33;;;;;7.77;66.88;102408.94;4897720;29;45336;-94
2021/12/20 00:27:39;;;;;;;;;27.25;24.00;;;;;7.65;66.61;102394.06;4906775;28;45360;-95
2021/12/20 00:30:10;;;;;;;;;31.00;25.50;;;;;7.54;66.70;102376.56;4911702;28;48148;-95
2021/12/20 00:32:35;;;;;;;;;21.00;17.50;;;;;7.65;66.92;102398.38;4883500;28;46133;-94
2021/12/20 00:35:01;;;;;;;;;28.00;21.25;;;;;7.68;67.15;102410.00;4916836;28;45481;-95
2021/12/20 00:40:22;;;;;;;;;28.00;24.25;;;;;7.73;67.06;102406.88;4843823;29;45588;-95
2021/12/20 00:42:59;;;;;;;;;29.00;24.50;;;;;7.66;66.75;102395.88;4835668;29;45429;-95
2021/12/20 00:45:29;;;;;;;;;28.00;24.00;;;;;7.66;67.00;102393.28;4851296;29;45347;-95
2021/12/20 00:47:55;;;;;;;;;27.00;23.00;;;;;7.62;66.95;102379.81;4827537;29;45378;-95
2021/12/20 00:50:22;;;;;;;;;24.00;22.75;;;;;7.69;67.03;102387.38;4846328;29;46956;-96
2021/12/20 00:52:49;;;;;;;;;31.25;25.00;;;;;7.77;67.09;102396.78;4858891;29;45947;-95
2021/12/20 00:55:16;;;;;;;;;26.50;22.75;;;;;7.72;67.35;102390.28;4845778;29;45667;-95
2021/12/20 00:57:43;;;;;;;;;23.00;20.67;;;;;7.77;66.74;102396.78;4866383;29;45725;-95
2021/12/20 01:00:10;;;;;;;;;22.33;22.33;;;;;7.65;66.51;102378.41;4846140;29;47499;-94
2021/12/20 01:02:35;;;;;;;;;32.00;23.75;;;;;7.66;66.87;102380.19;4846078;29;45957;-95
2021/12/20 01:05:01;;;;;;;;;29.75;23.75;;;;;7.65;66.90;102380.09;4862161;29;45506;-95
2021/12/20 01:07:28;;;;;;;;;24.25;20.25;;;;;7.60;66.65;102367.53;4845905;29;45596;-95
2021/12/20 01:09:57;;;;;;;;;24.75;17.75;;;;;7.57;66.79;102363.75;4861437;29;47391;-93
2021/12/20 01:12:26;;;;;;;;;26.50;20.75;;;;;7.60;67.15;102364.91;4845872;29;45754;-95
2021/12/20 01:14:58;;;;;;;;;30.25;24.00;;;;;7.53;67.08;102356.44;4862121;29;45752;-95
2021/12/20 01:17:23;;;;;;;;;29.75;22.25;;;;;7.56;66.74;102347.16;4870129;29;45461;-94
2021/12/20 01:19:49;;;;;;;;;29.50;24.50;;;;;7.74;66.74;102382.53;4903321;28;47350;-95
2021/12/20 01:22:14;;;;;;;;;27.25;22.25;;;;;7.67;66.88;102368.06;4888942;29;45916;-95
2021/12/20 01:24:39;;;;;;;;;23.25;18.75;;;;;7.53;66.93;102340.75;4919173;28;45430;-94
2021/12/20 01:27:05;;;;;;;;;31.00;23.50;;;;;7.52;66.97;102342.47;4912190;28;45592;-95
2021/12/20 01:29:30;;;;;;;;;22.50;22.00;;;;;7.67;66.83;102368.06;4918206;28;48325;-94
2021/12/20 01:31:56;;;;;;;;;11.00;2.50;;;;;7.65;66.78;102359.19;4915970;28;45999;-94
2021/12/20 01:34:21;;;;;;;;;26.00;21.67;;;;;7.68;67.01;102360.31;4915835;28;45837;-94
2021/12/20 01:36:47;;;;;;;;;22.67;19.00;;;;;7.73;67.04;102370.28;4894407;28;45702;-94
2021/12/20 01:39:12;;;;;;;;;25.00;22.25;;;;;7.66;67.03;102361.91;4902259;28;48140;-94
2021/12/20 01:41:40;;;;;;;;;20.33;16.67;;;;;7.56;66.74;102341.00;4902690;28;45531;-94
2021/12/20 01:44:06;;;;;;;;;20.33;18.67;;;;;7.77;66.91;102375.88;4919214;28;45401;-95
2021/12/20 01:46:31;;;;;;;;;21.00;19.00;;;;;7.63;66.74;102342.47;4915927;28;45472;-94
2021/12/20 01:48:58;;;;;;;;;29.33;19.33;;;;;7.75;66.79;102361.78;4902815;28;47546;-95
2021/12/20 01:51:47;;;;;;;;;17.67;17.33;;;;;7.63;66.77;102355.53;4910826;28;45654;-94
2021/12/20 01:54:12;;;;;;;;;22.00;17.67;;;;;7.59;66.62;102336.97;4889337;28;45265;-94
2021/12/20 01:56:41;;;;;;;;;18.00;17.00;;;;;7.51;66.55;102329.25;4918564;28;45322;-94
2021/12/20 01:59:08;;;;;;;;;22.75;21.25;;;;;7.69;66.77;102356.94;4908753;28;47323;-93
2021/12/20 02:01:34;;;;;;;;;22.00;22.00;;;;;7.57;66.91;102337.63;4917824;28;45507;-94
2021/12/20 02:04:04;;;;;;;;;28.00;25.50;;;;;7.72;66.97;102361.50;4915510;28;46144;-94
2021/12/20 02:09:00;;;;;;;;;24.50;23.00;;;;;7.64;66.62;102345.19;4915504;28;45368;-95
2021/12/20 02:11:26;;;;;;;;;21.75;20.75;;;;;7.62;66.74;102336.31;4883631;28;46103;-94
2021/12/20 02:13:51;;;;;;;;;24.25;23.00;;;;;7.63;66.85;102332.91;4883912;29;45373;-94
2021/12/20 02:16:19;;;;;;;;;29.00;25.00;;;;;7.79;66.82;102358.63;4897755;28;45495;-95
2021/12/20 02:18:45;;;;;;;;;27.50;22.25;;;;;7.71;66.73;102339.69;4902321;28;47099;-95
2021/12/20 02:21:10;;;;;;;;;29.67;22.67;;;;;7.68;66.83;102330.69;4902589;28;45323;-94
2021/12/20 02:23:36;;;;;;;;;31.00;24.67;;;;;7.57;66.85;102319.34;4917668;28;45289;-95
2021/12/20 02:26:03;;;;;;;;;24.75;22.75;;;;;7.65;66.87;102340.88;4896894;28;45389;-95
2021/12/20 02:28:35;;;;;;;;;25.75;22.25;;;;;7.63;66.98;102330.28;4904616;28;47004;-96
2021/12/20 02:39:18;;;;;;;;;31.00;18.67;;;;;7.66;66.14;102321.78;4919155;28;45728;-94
2021/12/20 02:41:44;;;;;;;;;28.50;25.50;;;;;7.67;66.54;102334.06;4917772;28;45363;-94
2021/12/20 02:44:18;;;;;;;;;27.33;25.67;;;;;7.62;66.50;102315.41;4918577;28;45651;-94
2021/12/20 02:49:20;;;;;;;;;31.25;28.00;;;;;7.58;66.43;102308.06;4914759;28;45497;-94
2021/12/20 02:51:50;;;;;;;;;28.00;24.25;;;;;7.54;66.70;102304.31;4913765;28;45850;-94
2021/12/20 02:54:17;;;;;;;;;27.50;25.75;;;;;7.74;66.82;102335.47;4901926;28;45545;-94
2021/12/20 02:56:42;;;;;;;;;38.00;28.50;;;;;7.66;66.58;102317.47;4917545;28;45458;-94
2021/12/20 02:59:08;;;;;;;;;31.50;26.50;;;;;7.79;66.40;102339.41;4917740;28;47239;-94
2021/12/20 03:01:35;;;;;;;;;33.50;29.00;;;;;7.81;66.35;102340.44;4903869;28;45558;-95
2021/12/20 03:04:02;;;;;;;;;33.50;29.75;;;;;7.71;66.14;102325.69;4902027;28;45497;-95
2021/12/20 03:06:40;;;;;;;;;40.50;32.00;;;;;7.80;65.99;102336.94;4901924;28;45678;-95
2021/12/20 03:09:09;;;;;;;;;34.50;29.50;;;;;7.70;66.01;102322.19;4900997;28;47347;-94
2021/12/20 03:11:36;;;;;;;;;39.00;32.75;;;;;7.62;66.15;102307.56;4903616;28;45617;-94
2021/12/20 03:14:19;;;;;;;;;38.00;31.25;;;;;7.53;66.32;102297.25;4917919;28;45340;-95
2021/12/20 03:16:44;;;;;;;;;35.75;31.25;;;;;7.62;66.17;102306.66;4916145;28;45481;-95
2021/12/20 03:19:10;;;;;;;;;41.75;35.25;;;;;7.66;66.21;102308.72;4906520;28;47971;-95
2021/12/20 03:21:35;;;;;;;;;49.50;35.25;;;;;7.58;66.40;102298.53;4913764;28;45404;-95
2021/12/20 03:24:01;;;;;;;;;38.50;30.00;;;;;7.70;66.16;102314.34;4916984;28;45349;-94
2021/12/20 03:26:27;;;;;;;;;41.75;35.25;;;;;7.73;66.35;102315.38;4902579;28;45458;-93
2021/12/20 03:28:52;;;;;;;;;42.00;35.25;;;;;7.65;66.19;102307.81;4916521;28;47160;-94
2021/12/20 03:31:19;;;;;;;;;39.75;36.50;;;;;7.56;66.45;102297.50;4917162;28;45406;-94
2021/12/20 03:33:44;;;;;;;;;37.75;34.50;;;;;7.73;66.43;102312.75;4900006;28;46826;-96
2021/12/20 03:36:10;;;;;;;;;49.00;39.25;;;;;7.66;66.33;102308.72;4900811;28;45599;-95
2021/12/20 03:38:35;;;;;;;;;37.25;34.00;;;;;7.69;66.38;102311.59;4916951;28;47190;-94
2021/12/20 03:41:01;;;;;;;;;30.75;28.25;;;;;7.63;66.05;102296.31;4898078;29;45268;-95
2021/12/20 03:43:31;;;;;;;;;40.75;33.75;;;;;7.65;66.00;102304.28;4901508;28;45369;-95
2021/12/20 03:45:58;;;;;;;;;43.50;30.75;;;;;7.60;66.32;102289.13;4891428;29;45644;-96
2021/12/20 03:48:24;;;;;;;;;39.25;33.00;;;;;7.55;66.27;102279.09;4917215;28;48679;-94
2021/12/20 03:50:50;;;;;;;;;33.50;28.25;;;;;7.70;65.98;102300.34;4899992;28;45553;-94
2021/12/20 03:53:16;;;;;;;;;37.00;31.50;;;;;7.68;66.07;102304.56;4882754;29;45393;-95
2021/12/20 03:55:41;;;;;;;;;34.25;30.75;;;;;7.59;66.11;102289.00;4899962;28;45473;-95
2021/12/20 03:58:07;;;;;;;;;38.25;32.75;;;;;7.53;65.94;102284.19;4901259;28;47217;-94
2021/12/20 04:00:32;;;;;;;;;44.75;35.75;;;;;7.58;65.97;102290.69;4893571;28;45706;-94
2021/12/20 04:02:58;;;;;;;;;45.00;35.50;;;;;7.55;66.28;102281.72;4912911;28;45372;-95
2021/12/20 04:05:24;;;;;;;;;42.75;32.75;;;;;7.64;66.04;102294.59;4901583;28;45450;-94
2021/12/20 04:07:50;;;;;;;;;38.50;33.25;;;;;7.66;65.81;102306.09;4882177;29;47930;-95
2021/12/20 04:10:15;;;;;;;;;30.00;28.50;;;;;7.62;65.83;102297.09;4916732;28;45413;-94
2021/12/20 04:12:41;;;;;;;;;39.75;31.50;;;;;7.48;66.05;102278.59;4901061;28;45437;-95
2021/12/20 04:15:06;;;;;;;;;46.25;37.25;;;;;7.63;66.29;102300.66;4917049;28;45397;-94
2021/12/20 04:17:32;;;;;;;;;43.75;34.25;;;;;7.60;66.50;102289.13;4900313;28;47718;-95
2021/12/20 04:19:57;;;;;;;;;40.25;33.75;;;;;7.50;65.79;102273.47;4913837;28;47232;-95
2021/12/20 04:22:23;;;;;;;;;35.25;29.25;;;;;7.68;65.79;102307.16;4913089;28;45497;-94
2021/12/20 04:24:48;;;;;;;;;36.50;31.00;;;;;7.54;66.01;102280.78;4916816;28;45657;-95
2021/12/20 04:27:14;;;;;;;;;34.25;27.25;;;;;7.48;66.05;102264.59;4898370;29;48024;-93
2021/12/20 04:29:39;;;;;;;;;32.50;28.50;;;;;7.59;65.76;102303.00;4903065;28;45407;-95
2021/12/20 04:32:05;;;;;;;;;44.00;34.50;;;;;7.51;65.79;102285.75;4920149;28;45299;-94
2021/12/20 04:34:30;;;;;;;;;33.25;26.50;;;;;7.46;66.13;102282.78;4920296;28;45558;-95
2021/12/20 04:36:56;;;;;;;;;39.50;30.50;;;;;7.41;65.80;102278.88;4919166;28;47449;-96
2021/12/20 04:39:26;;;;;;;;;31.00;28.00;;;;;7.49;65.73;102309.16;4903586;28;45651;-96
2021/12/20 04:41:51;;;;;;;;;30.75;26.25;;;;;7.44;65.81;102296.50;4903983;28;45430;-94
2021/12/20 04:44:16;;;;;;;;;34.25;25.50;;;;;7.42;65.84;102291.13;4920298;28;45580;-95
2021/12/20 04:46:42;;;;;;;;;40.00;31.50;;;;;7.46;65.83;102302.75;4916186;28;47411;-94
2021/12/20 04:49:07;;;;;;;;;34.25;26.00;;;;;7.42;65.99;102295.47;4914323;28;45351;-95
2021/12/20 04:51:33;;;;;;;;;35.00;29.00;;;;;7.35;65.92;102288.78;4929233;28;45561;-95
2021/12/20 04:53:58;;;;;;;;;35.00;27.00;;;;;7.40;66.09;102297.00;4918832;28;45585;-94
2021/12/20 04:56:24;;;;;;;;;32.67;27.33;;;;;7.31;65.79;102271.97;4919700;28;48163;-94
2021/12/20 04:58:49;;;;;;;;;30.25;26.00;;;;;7.31;66.04;102290.25;4904213;28;45246;-96
2021/12/20 05:01:15;;;;;;;;;34.50;29.75;;;;;7.39;66.03;102303.94;4899355;28;45321;-95
2021/12/20 05:03:40;;;;;;;;;31.25;25.75;;;;;7.40;66.25;102307.44;4894246;29;45633;-95
2021/12/20 05:06:05;;;;;;;;;27.25;23.75;;;;;7.30;66.11;102292.72;4902113;28;47453;-94
2021/12/20 05:08:36;;;;;;;;;31.75;26.00;;;;;7.29;66.08;102291.81;4903949;28;45894;-95
2021/12/20 05:11:06;;;;;;;;;37.75;31.50;;;;;7.23;66.01;102293.91;4917677;28;45620;-96
2021/12/20 05:13:32;;;;;;;;;29.67;22.67;;;;;7.18;65.93;102285.69;4919615;28;45403;-95
2021/12/20 05:15:58;;;;;;;;;30.33;24.67;;;;;7.16;65.58;102289.88;4909905;28;47935;-95
2021/12/20 05:18:23;;;;;;;;;21.67;20.33;;;;;7.20;66.05;102302.41;4915060;28;45434;-95
2021/12/20 05:20:48;;;;;;;;;23.67;18.00;;;;;7.23;66.02;102307.88;4919553;28;45418;-95
2021/12/20 05:23:14;;;;;;;;;37.00;27.75;;;;;7.15;65.91;102301.09;4903484;28;45633;-94
2021/12/20 05:25:39;;;;;;;;;28.00;23.00;;;;;7.12;65.96;102293.91;4904620;28;47868;-94
2021/12/20 05:28:05;;;;;;;;;22.67;17.00;;;;;7.16;65.66;102300.31;4908984;28;45425;-94
2021/12/20 05:30:31;;;;;;;;;24.00;19.67;;;;;7.16;66.03;102308.16;4914528;28;45586;-95
2021/12/20 05:32:57;;;;;;;;;22.00;21.25;;;;;7.18;65.99;102303.97;4916894;28;45442;-95
2021/12/20 05:35:23;;;;;;;;;22.67;21.33;;;;;7.08;66.00;102280.47;4884578;29;47188;-95
2021/12/20 05:37:49;;;;;;;;;27.00;24.67;;;;;7.19;65.92;102289.22;4902514;28;46120;-96
2021/12/20 05:40:16;;;;;;;;;27.33;25.67;;;;;7.11;65.84;102289.47;4902306;28;45446;-94
2021/12/20 05:42:42;;;;;;;;;25.67;22.33;;;;;7.16;66.12;102287.25;4918952;28;45577;-94
2021/12/20 05:45:09;;;;;;;;;28.50;26.50;;;;;7.25;66.14;102310.63;4915428;28;47082;-94
2021/12/20 05:47:34;;;;;;;;;25.00;18.75;;;;;7.18;65.91;102295.22;4918827;28;46197;-94
2021/12/20 05:50:00;;;;;;;;;28.00;25.25;;;;;7.20;65.73;102304.09;4903460;28;45378;-95
2021/12/20 05:52:26;;;;;;;;;22.00;19.50;;;;;7.01;65.90;102276.44;4918713;28;46178;-94
2021/12/20 05:54:51;;;;;;;;;24.50;21.25;;;;;7.12;66.17;102299.13;4907245;28;47768;-95
2021/12/20 05:57:16;;;;;;;;;29.00;21.00;;;;;7.03;66.02;102285.31;4890575;28;45447;-94
2021/12/20 05:59:42;;;;;;;;;30.00;23.50;;;;;7.17;65.95;102298.59;4903960;28;45429;-95
2021/12/20 06:02:07;;;;;;;;;25.50;22.75;;;;;7.24;65.99;102316.63;4904464;28;45508;-94
2021/12/20 06:04:33;;;;;;;;;32.50;23.25;;;;;7.17;65.63;102309.97;4918525;28;47148;-95
2021/12/20 06:06:59;;;;;;;;;25.75;22.25;;;;;7.10;65.70;102292.88;4909248;28;45577;-95
2021/12/20 06:09:24;;;;;;;;;31.50;22.50;;;;;7.13;65.85;102298.38;4898492;28;45600;-95
2021/12/20 06:11:50;;;;;;;;;26.25;20.50;;;;;7.01;65.91;102272.09;4916941;28;46021;-95
2021/12/20 06:14:15;;;;;;;;;30.50;24.50;;;;;7.11;65.75;102280.75;4915055;28;47150;-93
2021/12/20 06:16:41;;;;;;;;;26.50;24.00;;;;;7.13;65.61;102279.16;4914988;28;45379;-95
2021/12/20 06:19:07;;;;;;;;;30.00;25.50;;;;;7.18;65.65;102287.38;4903117;28;45481;-95
2021/12/20 06:21:32;;;;;;;;;31.25;24.00;;;;;7.20;65.20;102291.94;4912608;28;45453;-94
2021/12/20 06:23:58;;;;;;;;;36.75;24.00;;;;;7.09;65.68;102277.06;4902257;28;47327;-94
2021/12/20 06:26:23;;;;;;;;;32.25;25.50;;;;;7.20;65.91;102293.63;4915162;28;45724;-94
2021/12/20 06:28:50;;;;;;;;;22.50;18.50;;;;;7.26;65.67;102300.31;4917947;28;45437;-95
2021/12/20 06:31:16;;;;;;;;;32.00;23.75;;;;;7.17;65.53;102295.97;4902395;28;45933;-95
2021/12/20 06:33:42;;;;;;;;;25.75;22.75;;;;;7.11;65.49;102299.00;4902434;28;47237;-94
2021/12/20 06:36:07;;;;;;;;;29.25;28.50;;;;;7.13;65.50;102303.59;4902339;28;45924;-95
2021/12/20 06:38:34;;;;;;;;;29.75;25.50;;;;;7.08;65.76;102306.59;4889881;28;45446;-96
2021/12/20 06:40:59;;;;;;;;;35.00;24.00;;;;;7.14;65.82;102321.06;4902563;28;45203;-94
2021/12/20 06:43:25;;;;;;;;;30.50;26.00;;;;;7.09;66.14;102313.63;4901868;28;47274;-94
2021/12/20 06:45:50;;;;;;;;;27.50;25.25;;;;;6.97;66.00;102295.22;4897284;28;45486;-95
2021/12/20 06:48:16;;;;;;;;;36.25;29.25;;;;;7.06;66.02;102303.81;4918144;28;45363;-95
2021/12/20 06:50:41;;;;;;;;;29.00;20.50;;;;;7.13;65.70;102324.47;4916481;28;45748;-96
2021/12/20 06:53:07;;;;;;;;;29.50;24.00;;;;;7.06;65.85;102314.25;4917952;28;46794;-95
2021/12/20 06:55:33;;;;;;;;;29.50;26.75;;;;;7.03;65.61;102307.13;4917527;28;45471;-94
2021/12/20 06:57:59;;;;;;;;;30.75;24.00;;;;;7.04;65.80;102314.16;4918001;28;45869;-95
2021/12/20 07:00:26;;;;;;;;;39.25;29.25;;;;;7.09;65.80;102326.66;4912711;28;45456;-95
2021/12/20 07:02:52;;;;;;;;;29.50;26.25;;;;;7.17;66.18;102341.31;4900632;28;47262;-95
2021/12/20 07:05:17;;;;;;;;;27.33;24.33;;;;;7.13;66.30;102331.41;4918046;28;45625;-95
2021/12/20 07:07:43;;;;;;;;;33.50;25.00;;;;;7.14;65.84;102322.75;4918071;28;45453;-95
2021/12/20 07:10:09;;;;;;;;;28.25;25.50;;;;;7.06;65.82;102309.03;4912635;28;45596;-96
2021/12/20 07:12:36;;;;;;;;;34.25;28.75;;;;;7.14;65.88;102321.06;4917507;28;47338;-95
2021/12/20 07:15:03;;;;;;;;;27.75;23.75;;;;;7.21;66.00;102332.03;4917340;28;45267;-94
2021/12/20 07:17:30;;;;;;;;;24.50;18.25;;;;;7.06;65.94;102297.72;4901914;28;45557;-95
2021/12/20 07:19:57;;;;;;;;;30.75;22.00;;;;;7.26;65.86;102342.09;4921544;28;45533;-94
2021/12/20 07:22:23;;;;;;;;;31.75;23.50;;;;;7.31;65.64;102344.19;4901318;28;48647;-94
2021/12/20 07:24:49;;;;;;;;;21.33;17.00;;;;;7.19;65.83;102312.72;4916885;28;45312;-94
2021/12/20 07:27:17;;;;;;;;;27.25;22.25;;;;;7.27;65.78;102324.72;4913763;28;45316;-95
2021/12/20 07:29:42;;;;;;;;;23.50;20.00;;;;;7.29;65.74;102328.41;4901772;28;45509;-95
2021/12/20 07:32:11;;;;;;;;;16.67;14.67;;;;;7.26;64.61;102333.34;4917576;28;46591;-95
2021/12/20 07:34:37;;;;;;;;;24.00;17.67;;;;;7.30;65.31;102337.13;4919164;28;45612;-94
2021/12/20 07:37:06;;;;;;;;;21.33;19.00;;;;;7.11;65.15;102312.06;4932390;28;45342;-94
2021/12/20 07:39:32;;;;;;;;;24.33;17.67;;;;;7.29;64.94;102344.06;4898659;28;45475;-88
2021/12/20 07:41:57;;;;;;;;;17.33;12.33;;;;;7.28;64.97;102336.09;4913592;28;46645;-89
2021/12/20 07:44:23;;;;;;;;;16.00;11.33;;;;;7.32;64.75;102349.53;4914060;28;45525;-91
2021/12/20 07:46:49;;;;;;;;;12.33;11.33;;;;;7.28;64.46;102339.63;4912815;28;45582;-91
2021/12/20 07:49:14;;;;;;;;;11.67;10.33;;;;;7.27;64.53;102343.00;4910725;28;45522;-90
2021/12/20 07:51:40;;;;;;;;;11.00;8.33;;;;;7.28;63.92;102343.91;4903754;28;48328;-90
2021/12/20 07:54:05;;;;;;;;;13.33;11.33;;;;;7.31;64.73;102345.09;4897991;28;45876;-90
2021/12/20 07:56:31;;;;;;;;;11.00;9.67;;;;;7.32;64.05;102349.53;4897251;28;45466;-91
2021/12/20 07:58:56;;;;;;;;;14.67;11.67;;;;;7.29;64.51;102335.31;4912628;28;45501;-90
2021/12/20 08:01:21;;;;;;;;;15.33;11.67;;;;;7.34;63.96;102345.38;4914654;28;47021;-88
2021/12/20 08:03:47;;;;;;;;;17.67;13.00;;;;;7.37;64.03;102355.16;4918631;28;45403;-89
2021/12/20 08:06:12;;;;;;;;;14.33;11.67;;;;;7.31;63.94;102337.25;4900787;28;45453;-89
2021/12/20 08:08:39;;;;;;;;;13.67;13.33;;;;;7.37;64.21;102344.72;4915393;28;45256;-91
2021/12/20 08:11:04;;;;;;;;;17.00;14.67;;;;;7.43;64.26;102346.91;4902345;28;46204;-89
2021/12/20 08:13:31;;;;;;;;;18.67;14.00;;;;;7.38;64.34;102331.78;4887523;29;45324;-90
2021/12/20 08:15:56;;;;;;;;;12.00;12.00;;;;;7.46;63.97;102350.72;4914399;28;45276;-90
2021/12/20 08:18:21;;;;;;;;;21.33;14.33;;;;;7.44;63.78;102347.06;4898715;29;45777;-92
2021/12/20 08:20:47;;;;;;;;;12.67;12.67;;;;;7.47;63.94;102356.84;4886311;28;46868;-91
2021/12/20 08:23:13;;;;;;;;;15.00;12.33;;;;;7.43;63.43;102354.75;4918358;28;45434;-89
2021/12/20 08:25:39;;;;;;;;;16.00;13.67;;;;;7.36;63.79;102340.25;4907074;28;45493;-87
2021/12/20 08:28:06;;;;;;;;;24.67;20.67;;;;;7.43;64.04;102360.88;4912782;28;45575;-88
2021/12/20 08:30:31;;;;;;;;;16.00;13.00;;;;;7.37;64.00;102355.16;4916515;28;47752;-89
2021/12/20 08:32:56;;;;;;;;;22.00;17.75;;;;;7.44;63.81;102362.72;4914913;28;46148;-89
2021/12/20 08:35:22;;;;;;;;;25.33;18.00;;;;;7.43;63.88;102368.72;4893880;29;49122;-88
2021/12/20 08:37:47;;;;;;;;;23.67;21.33;;;;;7.44;63.73;102373.19;4899170;28;45598;-88
2021/12/20 08:40:15;;;;;;;;;11.33;10.67;;;;;7.37;63.50;102361.28;4896122;28;48548;-88
2021/12/20 08:42:43;;;;;;;;;19.00;17.00;;;;;7.40;63.70;102372.78;4916017;28;45700;-89
2021/12/20 08:45:11;;;;;;;;;23.00;21.67;;;;;7.42;63.41;102381.69;4918338;28;45562;-88
2021/12/20 08:47:36;;;;;;;;;22.67;17.00;;;;;7.39;63.46;102384.94;4894641;28;45435;-90
2021/12/20 08:50:05;;;;;;;;;31.67;21.33;;;;;7.37;63.41;102370.84;4897756;28;47137;-88
2021/12/20 08:52:30;;;;;;;;;26.33;19.00;;;;;7.40;63.58;102378.00;4892757;28;46296;-88
2021/12/20 08:54:56;;;;;;;;;27.67;18.67;;;;;7.46;63.96;102374.22;4916058;28;45821;-87
2021/12/20 08:57:21;;;;;;;;;18.33;14.00;;;;;7.48;63.47;102379.56;4902809;28;45447;-90
2021/12/20 08:59:47;;;;;;;;;23.00;18.25;;;;;7.47;63.66;102369.91;4913268;28;48825;-87
2021/12/20 09:02:12;;;;;;;;;20.33;18.00;;;;;7.49;63.04;102376.19;4916213;28;45540;-88
2021/12/20 09:04:38;;;;;;;;;24.25;21.50;;;;;7.55;63.06;102394.97;4911922;28;45496;-87
2021/12/20 09:07:05;;;;;;;;;20.00;16.67;;;;;7.55;63.71;102381.03;4914372;28;46798;-89
2021/12/20 09:09:37;;;;;;;;;27.00;20.67;;;;;7.63;63.70;102389.50;4894312;28;47123;-90
2021/12/20 09:12:04;;;;;;;;;25.75;18.75;;;;;7.66;63.16;102392.34;4890301;28;45580;-89
2021/12/20 09:14:33;;;;;;;;;27.00;18.67;;;;;7.67;63.39;102382.03;4893940;28;45550;-89
2021/12/20 09:16:58;;;;;;;;;22.00;21.00;;;;;7.63;63.05;102385.16;4897310;28;45636;-90
2021/12/20 09:19:23;;;;;;;;;21.50;19.50;;;;;7.64;63.01;102380.84;4913992;28;48543;-89
2021/12/20 09:21:49;;;;;;;;;26.67;18.00;;;;;7.64;62.96;102383.47;4915635;28;47190;-89
2021/12/20 09:24:14;;;;;;;;;28.25;22.50;;;;;7.64;62.83;102375.63;4903251;28;45324;-90
2021/12/20 09:26:40;;;;;;;;;17.33;14.67;;;;;7.60;62.30;102374.47;4892308;28;53496;-90
2021/12/20 09:29:05;;;;;;;;;28.25;23.00;;;;;7.63;62.71;102382.56;4901206;28;50476;-91
2021/12/20 09:31:31;;;;;;;;;28.00;20.67;;;;;7.64;62.35;102387.00;4914325;28;45639;-91
2021/12/20 09:33:57;;;;;;;;;23.75;20.25;;;;;7.63;62.41;102387.78;4889049;28;45468;-90
2021/12/20 09:36:28;;;;;;;;;28.25;23.00;;;;;7.65;62.55;102387.94;4891988;28;45876;-90
2021/12/20 09:38:54;;;;;;;;;30.67;21.00;;;;;7.62;62.38;102387.66;4912415;28;45550;-90
2021/12/20 09:41:59;;;;;;;;;24.50;22.25;;;;;7.66;62.81;102393.28;4915191;28;45610;-89
2021/12/20 09:44:07;;;;;;;;;23.67;20.67;;;;;7.66;62.44;102394.97;4916950;28;45501;-91
2021/12/20 09:46:33;;;;;;;;;23.67;19.33;;;;;7.64;62.46;102386.09;4915014;28;45390;-91
2021/12/20 09:48:59;;;;;;;;;23.33;16.33;;;;;7.64;61.99;102375.63;4915575;28;45600;-90
2021/12/20 09:51:25;;;;;;;;;17.67;15.33;;;;;7.67;62.31;102397.72;4895832;28;46235;-89
2021/12/20 09:53:51;;;;;;;;;12.00;11.00;;;;;7.69;62.15;102397.84;4901139;28;45435;-91
2021/12/20 09:56:22;;;;;;;;;17.00;13.67;;;;;7.65;62.23;102391.47;4898891;28;45702;-89
2021/12/20 09:58:48;;;;;;;;;13.67;12.67;;;;;7.66;61.99;102403.72;4916370;28;46987;-91
2021/12/20 10:01:14;;;;;;;;;22.67;14.67;;;;;7.66;61.90;102395.88;4896136;28;45420;-90
2021/12/20 10:03:43;;;;;;;;;17.67;12.33;;;;;7.65;61.78;102396.69;4906597;28;45843;-90
2021/12/20 10:06:08;;;;;;;;;17.00;15.00;;;;;7.68;61.71;102398.66;4915021;28;45568;-90
2021/12/20 10:08:37;;;;;;;;;16.00;13.67;;;;;7.70;61.82;102399.69;4887959;28;48207;-90
2021/12/20 10:11:05;;;;;;;;;11.00;8.67;;;;;7.68;62.04;102393.41;4915968;28;45453;-89
2021/12/20 10:13:36;;;;;;;;;17.33;15.33;;;;;7.72;61.96;102400.72;4905310;28;45654;-91
2021/12/20 10:16:12;;;;;;;;;19.00;15.67;;;;;7.72;61.59;102395.50;4913775;28;45283;-91
2021/12/20 10:18:38;;;;;;;;;23.00;17.50;;;;;7.79;61.53;102402.13;4909187;28;46619;-91
2021/12/20 10:21:04;;;;;;;;;22.00;17.67;;;;;7.74;61.32;102388.69;4914896;28;45509;-89
2021/12/20 10:23:32;;;;;;;;;18.67;16.00;;;;;7.80;61.34;102401.38;4915884;28;45529;-90
2021/12/20 10:26:09;;;;;;;;;24.33;16.33;;;;;7.81;61.69;102404.09;4916003;28;45381;-91
2021/12/20 10:28:36;;;;;;;;;13.00;13.00;;;;;7.86;61.56;102403.59;4898956;28;47415;-90
2021/12/20 10:31:06;;;;;;;;;24.67;18.33;;;;;7.87;61.65;102387.09;4906806;28;45334;-90
2021/12/20 10:33:32;;;;;;;;;19.67;18.33;;;;;7.94;61.67;102395.56;4913824;28;45547;-89
2021/12/20 10:36:01;;;;;;;;;18.00;15.33;;;;;7.96;61.13;102393.09;4913968;28;45538;-89
2021/12/20 10:38:38;;;;;;;;;14.00;13.67;;;;;8.02;61.33;102395.28;4909772;28;45758;-88
2021/12/20 10:41:15;;;;;;;;;21.00;19.00;;;;;7.96;61.39;102384.34;4914926;28;45469;-89
2021/12/20 10:43:55;;;;;;;;;23.67;18.00;;;;;8.00;61.18;102392.56;4891103;28;45575;-88
2021/12/20 10:46:27;;;;;;;;;20.33;19.67;;;;;8.04;61.64;102380.66;4910328;28;45397;-89
2021/12/20 10:49:05;;;;;;;;;15.33;15.00;;;;;8.00;60.61;102373.34;4915432;28;47519;-89
2021/12/20 10:51:42;;;;;;;;;14.67;12.00;;;;;8.01;61.17;102380.41;4893118;28;45430;-89
2021/12/20 10:54:11;;;;;;;;;13.33;8.67;;;;;7.98;60.17;102381.06;4914065;28;45444;-88
2021/12/20 10:56:47;;;;;;;;;7.67;7.33;;;;;7.90;60.58;102372.59;4907955;28;45874;-89
2021/12/20 10:59:12;;;;;;;;;9.67;7.00;;;;;7.83;60.23;102370.25;4897679;28;53618;-90
2021/12/20 11:04:20;;;;;;;;;7.00;7.00;;;;;7.86;60.05;102385.28;4912394;28;45531;-91
2021/12/20 11:09:04;;;;;;;;;11.00;7.33;;;;;7.88;59.88;102381.09;4891895;28;45410;-89
2021/12/20 11:09:46;;;;;;;;;12.67;10.00;;;;;7.90;59.89;102382.13;4914006;28;45275;-90
2021/12/20 11:12:22;;;;;;;;;9.33;7.33;;;;;7.97;59.69;102375.69;4916135;28;45410;-91
2021/12/20 11:14:50;;;;;;;;;8.67;7.67;;;;;8.01;59.21;102367.31;4914900;28;45478;-90
2021/12/20 11:17:18;;;;;;;;;8.00;8.00;;;;;8.05;59.32;102370.31;4904036;28;45424;-89
2021/12/20 11:19:49;;;;;;;;;9.00;8.00;;;;;8.05;59.24;102354.63;4914996;28;46446;-89
2021/12/20 11:22:24;;;;;;;;;8.00;8.00;;;;;8.03;59.25;102361.44;4897433;28;45528;-89
2021/12/20 11:24:56;;;;;;;;;15.33;11.33;;;;;8.04;59.36;102368.47;4901326;28;45614;-92
2021/12/20 11:27:30;;;;;;;;;10.00;8.67;;;;;8.01;59.51;102368.25;4915008;28;45342;-88
2021/12/20 11:29:57;;;;;;;;;11.67;8.00;;;;;7.99;59.02;102355.84;4899337;28;47516;-89
2021/12/20 11:32:25;;;;;;;;;15.67;7.33;;;;;7.97;59.24;102350.47;4901400;28;45332;-89
2021/12/20 11:34:50;;;;;;;;;8.67;8.67;;;;;8.00;58.98;102349.78;4892356;28;45068;-89